sensor_id;sensor_type;location;lat;lon;timestamp;temperature;humidity
71994;DHT22;59861;50.268;8.648;2022-11-23T00:00:20;17.10;60.50
71994;DHT22;59861;50.268;8.648;2022-11-23T00:02:52;17.00;60.50
71994;DHT22;59861;50.268;8.648;2022-11-23T00:05:16;17.00;60.60
71994;DHT22;59861;50.268;8.648;2022-11-23T00:07:42;17.10;60.70
71994;DHT22;59861;50.268;8.648;2022-11-23T00:10:09;17.00;60.70
71994;DHT22;59861;50.268;8.648;2022-11-23T00:12:36;17.00;60.70
71994;DHT22;59861;50.268;8.648;2022-11-23T00:15:03;17.00;60.80
71994;DHT22;59861;50.268;8.648;2022-11-23T00:17:30;17.00;60.70
71994;DHT22;59861;50.268;8.648;2022-11-23T00:19:57;17.00;60.60
71994;DHT22;59861;50.268;8.648;2022-11-23T00:22:24;17.00;60.60
71994;DHT22;59861;50.268;8.648;2022-11-23T00:24:51;17.00;60.50
71994;DHT22;59861;50.268;8.648;2022-11-23T00:27:17;17.00;60.40
71994;DHT22;59861;50.268;8.648;2022-11-23T00:29:44;17.00;60.30
71994;DHT22;59861;50.268;8.648;2022-11-23T00:32:11;17.10;60.30
71994;DHT22;59861;50.268;8.648;2022-11-23T00:34:38;17.00;60.20
71994;DHT22;59861;50.268;8.648;2022-11-23T00:37:05;17.10;60.30
71994;DHT22;59861;50.268;8.648;2022-11-23T00:39:32;17.10;60.30
71994;DHT22;59861;50.268;8.648;2022-11-23T00:41:58;17.00;60.20
71994;DHT22;59861;50.268;8.648;2022-11-23T00:44:25;17.00;60.00
71994;DHT22;59861;50.268;8.648;2022-11-23T00:46:52;17.00;60.10
71994;DHT22;59861;50.268;8.648;2022-11-23T00:49:19;17.00;60.20
71994;DHT22;59861;50.268;8.648;2022-11-23T00:51:47;17.00;60.10
71994;DHT22;59861;50.268;8.648;2022-11-23T00:54:13;17.00;60.10
71994;DHT22;59861;50.268;8.648;2022-11-23T00:56:40;17.00;60.10
71994;DHT22;59861;50.268;8.648;2022-11-23T00:59:07;17.00;60.00
71994;DHT22;59861;50.268;8.648;2022-11-23T01:01:35;17.00;60.10
71994;DHT22;59861;50.268;8.648;2022-11-23T01:04:02;17.00;60.10
71994;DHT22;59861;50.268;8.648;2022-11-23T01:06:30;17.00;60.10
71994;DHT22;59861;50.268;8.648;2022-11-23T01:08:59;17.00;60.00
71994;DHT22;59861;50.268;8.648;2022-11-23T01:11:28;17.00;60.10
71994;DHT22;59861;50.268;8.648;2022-11-23T01:13:55;17.00;60.10
71994;DHT22;59861;50.268;8.648;2022-11-23T01:16:23;16.90;60.00
71994;DHT22;59861;50.268;8.648;2022-11-23T01:18:53;17.00;61.00
71994;DHT22;59861;50.268;8.648;2022-11-23T01:21:20;16.90;60.00
71994;DHT22;59861;50.268;8.648;2022-11-23T01:23:47;16.90;60.00
71994;DHT22;59861;50.268;8.648;2022-11-23T01:26:13;16.90;60.00
71994;DHT22;59861;50.268;8.648;2022-11-23T01:28:41;16.90;60.00
71994;DHT22;59861;50.268;8.648;2022-11-23T01:31:09;16.90;60.00
71994;DHT22;59861;50.268;8.648;2022-11-23T01:33:36;16.90;60.00
71994;DHT22;59861;50.268;8.648;2022-11-23T01:36:16;16.90;60.00
71994;DHT22;59861;50.268;8.648;2022-11-23T01:38:44;16.90;60.00
71994;DHT22;59861;50.268;8.648;2022-11-23T01:41:13;16.90;60.00
71994;DHT22;59861;50.268;8.648;2022-11-23T01:43:39;16.90;60.00
71994;DHT22;59861;50.268;8.648;2022-11-23T01:46:07;16.90;60.10
71994;DHT22;59861;50.268;8.648;2022-11-23T01:51:03;16.80;60.10
71994;DHT22;59861;50.268;8.648;2022-11-23T01:53:30;16.80;60.30
71994;DHT22;59861;50.268;8.648;2022-11-23T01:55:59;16.90;60.30
71994;DHT22;59861;50.268;8.648;2022-11-23T01:58:28;16.90;60.30
71994;DHT22;59861;50.268;8.648;2022-11-23T02:00:56;16.80;60.20
71994;DHT22;59861;50.268;8.648;2022-11-23T02:03:23;16.80;60.40
71994;DHT22;59861;50.268;8.648;2022-11-23T02:05:52;16.80;60.30
71994;DHT22;59861;50.268;8.648;2022-11-23T02:08:19;16.80;60.30
71994;DHT22;59861;50.268;8.648;2022-11-23T02:10:46;16.80;60.30
71994;DHT22;59861;50.268;8.648;2022-11-23T02:13:13;16.80;60.20
71994;DHT22;59861;50.268;8.648;2022-11-23T02:15:40;16.90;60.30
71994;DHT22;59861;50.268;8.648;2022-11-23T02:18:12;16.90;60.20
71994;DHT22;59861;50.268;8.648;2022-11-23T02:20:38;16.80;60.20
71994;DHT22;59861;50.268;8.648;2022-11-23T02:28:28;16.90;60.10
71994;DHT22;59861;50.268;8.648;2022-11-23T02:30:54;16.90;60.00
71994;DHT22;59861;50.268;8.648;2022-11-23T02:33:21;16.80;60.80
71994;DHT22;59861;50.268;8.648;2022-11-23T02:35:48;16.80;60.00
71994;DHT22;59861;50.268;8.648;2022-11-23T02:38:16;16.90;60.00
71994;DHT22;59861;50.268;8.648;2022-11-23T02:40:44;16.80;60.00
71994;DHT22;59861;50.268;8.648;2022-11-23T02:43:11;16.90;60.00
71994;DHT22;59861;50.268;8.648;2022-11-23T02:46:11;16.80;59.90
71994;DHT22;59861;50.268;8.648;2022-11-23T02:48:12;16.80;60.00
71994;DHT22;59861;50.268;8.648;2022-11-23T02:50:39;16.80;59.90
71994;DHT22;59861;50.268;8.648;2022-11-23T02:55:52;16.80;59.90
71994;DHT22;59861;50.268;8.648;2022-11-23T02:58:18;16.80;59.90
71994;DHT22;59861;50.268;8.648;2022-11-23T03:00:45;16.80;59.80
71994;DHT22;59861;50.268;8.648;2022-11-23T03:03:12;16.80;59.90
71994;DHT22;59861;50.268;8.648;2022-11-23T03:05:39;16.80;59.90
71994;DHT22;59861;50.268;8.648;2022-11-23T03:08:06;16.80;60.00
71994;DHT22;59861;50.268;8.648;2022-11-23T03:10:33;16.80;59.90
71994;DHT22;59861;50.268;8.648;2022-11-23T03:13:00;16.80;59.90
71994;DHT22;59861;50.268;8.648;2022-11-23T03:15:26;16.80;59.90
71994;DHT22;59861;50.268;8.648;2022-11-23T03:17:53;16.80;60.00
71994;DHT22;59861;50.268;8.648;2022-11-23T03:20:21;16.70;59.90
71994;DHT22;59861;50.268;8.648;2022-11-23T03:22:48;16.70;59.90
71994;DHT22;59861;50.268;8.648;2022-11-23T03:25:15;16.70;59.90
71994;DHT22;59861;50.268;8.648;2022-11-23T03:27:42;16.70;60.80
71994;DHT22;59861;50.268;8.648;2022-11-23T03:30:09;16.70;59.80
71994;DHT22;59861;50.268;8.648;2022-11-23T03:32:36;16.70;59.80
71994;DHT22;59861;50.268;8.648;2022-11-23T03:35:03;16.70;59.80
71994;DHT22;59861;50.268;8.648;2022-11-23T03:37:30;16.70;60.00
71994;DHT22;59861;50.268;8.648;2022-11-23T03:39:57;16.70;60.00
71994;DHT22;59861;50.268;8.648;2022-11-23T03:42:23;16.70;60.10
71994;DHT22;59861;50.268;8.648;2022-11-23T03:44:50;16.70;60.00
71994;DHT22;59861;50.268;8.648;2022-11-23T03:47:17;16.70;60.20
71994;DHT22;59861;50.268;8.648;2022-11-23T03:49:44;16.70;60.10
71994;DHT22;59861;50.268;8.648;2022-11-23T03:52:11;16.70;60.10
71994;DHT22;59861;50.268;8.648;2022-11-23T03:54:38;16.70;60.10
71994;DHT22;59861;50.268;8.648;2022-11-23T03:57:04;16.70;60.30
71994;DHT22;59861;50.268;8.648;2022-11-23T03:59:31;16.70;60.30
71994;DHT22;59861;50.268;8.648;2022-11-23T04:01:58;16.70;61.20
71994;DHT22;59861;50.268;8.648;2022-11-23T04:04:25;16.70;60.20
71994;DHT22;59861;50.268;8.648;2022-11-23T04:06:52;16.70;60.20
71994;DHT22;59861;50.268;8.648;2022-11-23T04:09:18;16.70;60.10
71994;DHT22;59861;50.268;8.648;2022-11-23T04:11:45;16.70;60.10
71994;DHT22;59861;50.268;8.648;2022-11-23T04:14:12;16.70;60.00
71994;DHT22;59861;50.268;8.648;2022-11-23T04:16:39;16.70;60.00
71994;DHT22;59861;50.268;8.648;2022-11-23T04:19:06;16.70;59.90
71994;DHT22;59861;50.268;8.648;2022-11-23T04:21:32;16.70;59.90
71994;DHT22;59861;50.268;8.648;2022-11-23T04:23:59;16.70;59.90
71994;DHT22;59861;50.268;8.648;2022-11-23T04:26:26;16.70;59.80
71994;DHT22;59861;50.268;8.648;2022-11-23T04:28:53;16.70;59.90
71994;DHT22;59861;50.268;8.648;2022-11-23T04:31:20;16.70;59.90
71994;DHT22;59861;50.268;8.648;2022-11-23T04:33:46;16.70;59.80
71994;DHT22;59861;50.268;8.648;2022-11-23T04:36:13;16.70;59.90
71994;DHT22;59861;50.268;8.648;2022-11-23T04:38:40;16.70;59.90
71994;DHT22;59861;50.268;8.648;2022-11-23T04:41:07;16.70;59.90
71994;DHT22;59861;50.268;8.648;2022-11-23T04:43:34;16.70;59.90
71994;DHT22;59861;50.268;8.648;2022-11-23T04:46:00;16.70;59.90
71994;DHT22;59861;50.268;8.648;2022-11-23T04:48:27;16.70;59.90
71994;DHT22;59861;50.268;8.648;2022-11-23T04:50:54;16.70;60.00
71994;DHT22;59861;50.268;8.648;2022-11-23T04:53:21;16.70;59.90
71994;DHT22;59861;50.268;8.648;2022-11-23T04:55:48;16.60;59.90
71994;DHT22;59861;50.268;8.648;2022-11-23T04:58:15;16.70;60.00
71994;DHT22;59861;50.268;8.648;2022-11-23T05:00:41;16.60;59.80
71994;DHT22;59861;50.268;8.648;2022-11-23T05:03:08;16.70;59.80
71994;DHT22;59861;50.268;8.648;2022-11-23T05:05:38;16.60;59.80
71994;DHT22;59861;50.268;8.648;2022-11-23T05:08:05;16.60;59.80
71994;DHT22;59861;50.268;8.648;2022-11-23T05:10:32;16.60;59.80
71994;DHT22;59861;50.268;8.648;2022-11-23T05:12:59;16.60;59.90
71994;DHT22;59861;50.268;8.648;2022-11-23T05:15:26;16.60;59.80
71994;DHT22;59861;50.268;8.648;2022-11-23T05:17:53;16.60;59.80
71994;DHT22;59861;50.268;8.648;2022-11-23T05:20:19;16.60;59.80
71994;DHT22;59861;50.268;8.648;2022-11-23T05:22:46;16.60;59.80
71994;DHT22;59861;50.268;8.648;2022-11-23T05:25:13;16.60;59.80
71994;DHT22;59861;50.268;8.648;2022-11-23T05:27:40;16.60;59.90
71994;DHT22;59861;50.268;8.648;2022-11-23T05:30:07;16.60;59.90
71994;DHT22;59861;50.268;8.648;2022-11-23T05:32:34;16.60;60.00
71994;DHT22;59861;50.268;8.648;2022-11-23T05:35:00;16.60;59.90
71994;DHT22;59861;50.268;8.648;2022-11-23T05:37:27;16.60;60.00
71994;DHT22;59861;50.268;8.648;2022-11-23T05:39:54;16.60;60.00
71994;DHT22;59861;50.268;8.648;2022-11-23T05:42:21;16.60;60.10
71994;DHT22;59861;50.268;8.648;2022-11-23T05:44:48;16.60;60.00
71994;DHT22;59861;50.268;8.648;2022-11-23T05:47:15;16.60;60.00
71994;DHT22;59861;50.268;8.648;2022-11-23T05:49:41;16.60;60.10
71994;DHT22;59861;50.268;8.648;2022-11-23T05:52:08;16.50;60.30
71994;DHT22;59861;50.268;8.648;2022-11-23T05:54:35;16.50;60.30
71994;DHT22;59861;50.268;8.648;2022-11-23T05:57:02;16.50;60.20
71994;DHT22;59861;50.268;8.648;2022-11-23T05:59:29;16.50;60.20
71994;DHT22;59861;50.268;8.648;2022-11-23T06:01:56;16.60;60.30
71994;DHT22;59861;50.268;8.648;2022-11-23T06:04:22;16.60;60.20
71994;DHT22;59861;50.268;8.648;2022-11-23T06:06:49;16.60;60.20
71994;DHT22;59861;50.268;8.648;2022-11-23T06:09:18;16.60;60.10
71994;DHT22;59861;50.268;8.648;2022-11-23T06:11:45;16.60;60.20
71994;DHT22;59861;50.268;8.648;2022-11-23T06:14:13;16.60;60.10
71994;DHT22;59861;50.268;8.648;2022-11-23T06:16:40;16.60;60.10
71994;DHT22;59861;50.268;8.648;2022-11-23T06:19:06;16.60;60.00
71994;DHT22;59861;50.268;8.648;2022-11-23T06:21:33;16.60;60.00
71994;DHT22;59861;50.268;8.648;2022-11-23T06:24:00;16.60;60.00
71994;DHT22;59861;50.268;8.648;2022-11-23T06:26:27;16.60;60.00
71994;DHT22;59861;50.268;8.648;2022-11-23T06:28:54;16.60;60.00
71994;DHT22;59861;50.268;8.648;2022-11-23T06:31:21;16.60;60.00
71994;DHT22;59861;50.268;8.648;2022-11-23T06:33:47;16.60;60.00
71994;DHT22;59861;50.268;8.648;2022-11-23T06:36:14;16.60;59.90
71994;DHT22;59861;50.268;8.648;2022-11-23T06:38:41;16.50;60.00
71994;DHT22;59861;50.268;8.648;2022-11-23T06:41:08;16.50;60.80
71994;DHT22;59861;50.268;8.648;2022-11-23T06:43:35;16.60;59.90
71994;DHT22;59861;50.268;8.648;2022-11-23T06:46:07;16.50;59.90
71994;DHT22;59861;50.268;8.648;2022-11-23T06:48:31;16.50;59.90
71994;DHT22;59861;50.268;8.648;2022-11-23T06:50:58;16.60;59.80
71994;DHT22;59861;50.268;8.648;2022-11-23T06:53:25;16.50;59.70
71994;DHT22;59861;50.268;8.648;2022-11-23T06:55:52;16.60;59.80
71994;DHT22;59861;50.268;8.648;2022-11-23T06:58:20;16.50;59.80
71994;DHT22;59861;50.268;8.648;2022-11-23T07:00:47;16.50;59.80
71994;DHT22;59861;50.268;8.648;2022-11-23T07:03:18;16.50;59.70
71994;DHT22;59861;50.268;8.648;2022-11-23T07:05:45;16.50;59.80
71994;DHT22;59861;50.268;8.648;2022-11-23T07:08:12;16.50;59.90
71994;DHT22;59861;50.268;8.648;2022-11-23T07:10:39;16.50;60.00
71994;DHT22;59861;50.268;8.648;2022-11-23T07:13:07;16.50;60.30
71994;DHT22;59861;50.268;8.648;2022-11-23T07:15:34;16.50;60.50
71994;DHT22;59861;50.268;8.648;2022-11-23T07:18:01;16.50;60.60
71994;DHT22;59861;50.268;8.648;2022-11-23T07:20:28;16.50;60.60
71994;DHT22;59861;50.268;8.648;2022-11-23T07:22:59;16.50;60.50
71994;DHT22;59861;50.268;8.648;2022-11-23T07:25:27;16.50;60.50
71994;DHT22;59861;50.268;8.648;2022-11-23T07:27:59;16.50;60.50
71994;DHT22;59861;50.268;8.648;2022-11-23T07:30:23;16.50;60.50
71994;DHT22;59861;50.268;8.648;2022-11-23T07:32:50;16.50;60.50
71994;DHT22;59861;50.268;8.648;2022-11-23T07:35:18;16.50;60.40
71994;DHT22;59861;50.268;8.648;2022-11-23T07:37:45;16.60;60.40
71994;DHT22;59861;50.268;8.648;2022-11-23T07:40:12;16.50;60.30
71994;DHT22;59861;50.268;8.648;2022-11-23T07:42:39;16.50;60.30
71994;DHT22;59861;50.268;8.648;2022-11-23T07:45:06;16.50;60.40
71994;DHT22;59861;50.268;8.648;2022-11-23T07:47:34;16.50;60.30
71994;DHT22;59861;50.268;8.648;2022-11-23T07:50:00;16.60;60.30
71994;DHT22;59861;50.268;8.648;2022-11-23T07:52:27;16.60;60.30
71994;DHT22;59861;50.268;8.648;2022-11-23T07:54:54;16.60;60.20
71994;DHT22;59861;50.268;8.648;2022-11-23T07:57:21;16.60;60.20
71994;DHT22;59861;50.268;8.648;2022-11-23T07:59:47;16.60;60.10
71994;DHT22;59861;50.268;8.648;2022-11-23T08:02:14;16.60;60.10
71994;DHT22;59861;50.268;8.648;2022-11-23T08:04:42;16.60;60.00
71994;DHT22;59861;50.268;8.648;2022-11-23T08:07:08;16.60;60.00
71994;DHT22;59861;50.268;8.648;2022-11-23T08:09:35;16.60;60.00
71994;DHT22;59861;50.268;8.648;2022-11-23T08:12:02;16.60;59.90
71994;DHT22;59861;50.268;8.648;2022-11-23T08:14:29;16.60;59.90
71994;DHT22;59861;50.268;8.648;2022-11-23T08:16:56;16.60;59.90
71994;DHT22;59861;50.268;8.648;2022-11-23T08:19:23;16.60;60.00
71994;DHT22;59861;50.268;8.648;2022-11-23T08:21:49;16.60;59.90
71994;DHT22;59861;50.268;8.648;2022-11-23T08:24:16;16.60;59.90
71994;DHT22;59861;50.268;8.648;2022-11-23T08:26:43;16.60;59.90
71994;DHT22;59861;50.268;8.648;2022-11-23T08:29:10;16.60;59.90
71994;DHT22;59861;50.268;8.648;2022-11-23T08:31:37;16.60;59.90
71994;DHT22;59861;50.268;8.648;2022-11-23T08:34:04;16.60;59.90
71994;DHT22;59861;50.268;8.648;2022-11-23T08:36:31;16.60;59.90
71994;DHT22;59861;50.268;8.648;2022-11-23T08:38:57;16.60;59.90
71994;DHT22;59861;50.268;8.648;2022-11-23T08:41:24;16.50;59.80
71994;DHT22;59861;50.268;8.648;2022-11-23T08:43:52;16.50;59.80
71994;DHT22;59861;50.268;8.648;2022-11-23T08:46:19;16.50;59.90
71994;DHT22;59861;50.268;8.648;2022-11-23T08:48:45;16.50;60.00
71994;DHT22;59861;50.268;8.648;2022-11-23T08:51:12;16.50;60.00
71994;DHT22;59861;50.268;8.648;2022-11-23T08:53:39;16.50;60.10
71994;DHT22;59861;50.268;8.648;2022-11-23T08:56:06;16.50;60.10
71994;DHT22;59861;50.268;8.648;2022-11-23T08:58:33;16.50;60.00
71994;DHT22;59861;50.268;8.648;2022-11-23T09:01:01;16.50;60.00
71994;DHT22;59861;50.268;8.648;2022-11-23T09:03:29;16.50;60.10
71994;DHT22;59861;50.268;8.648;2022-11-23T09:05:58;16.50;60.10
71994;DHT22;59861;50.268;8.648;2022-11-23T09:08:25;16.50;60.10
71994;DHT22;59861;50.268;8.648;2022-11-23T09:10:51;16.50;60.10
71994;DHT22;59861;50.268;8.648;2022-11-23T09:13:18;16.50;60.10
71994;DHT22;59861;50.268;8.648;2022-11-23T09:15:45;16.60;60.10
71994;DHT22;59861;50.268;8.648;2022-11-23T09:18:12;16.60;60.10
71994;DHT22;59861;50.268;8.648;2022-11-23T09:20:39;16.60;60.20
71994;DHT22;59861;50.268;8.648;2022-11-23T09:23:06;16.60;60.00
71994;DHT22;59861;50.268;8.648;2022-11-23T09:25:32;16.60;59.90
71994;DHT22;59861;50.268;8.648;2022-11-23T09:28:00;16.60;60.00
71994;DHT22;59861;50.268;8.648;2022-11-23T09:30:28;16.60;59.90
71994;DHT22;59861;50.268;8.648;2022-11-23T09:32:55;16.60;59.90
71994;DHT22;59861;50.268;8.648;2022-11-23T09:35:22;16.60;59.80
71994;DHT22;59861;50.268;8.648;2022-11-23T09:37:56;16.60;59.80
71994;DHT22;59861;50.268;8.648;2022-11-23T09:40:24;16.60;59.80
71994;DHT22;59861;50.268;8.648;2022-11-23T09:43:03;16.60;59.80
71994;DHT22;59861;50.268;8.648;2022-11-23T09:53:10;16.60;59.70
71994;DHT22;59861;50.268;8.648;2022-11-23T09:55:44;16.60;59.80
71994;DHT22;59861;50.268;8.648;2022-11-23T09:58:13;16.60;59.70
71994;DHT22;59861;50.268;8.648;2022-11-23T10:00:42;16.60;59.70
71994;DHT22;59861;50.268;8.648;2022-11-23T10:03:11;16.70;59.80
71994;DHT22;59861;50.268;8.648;2022-11-23T10:05:37;16.60;59.70
71994;DHT22;59861;50.268;8.648;2022-11-23T10:08:19;16.60;59.70
71994;DHT22;59861;50.268;8.648;2022-11-23T10:11:02;16.60;59.70
71994;DHT22;59861;50.268;8.648;2022-11-23T10:21:16;16.60;59.70
71994;DHT22;59861;50.268;8.648;2022-11-23T10:26:15;16.50;59.70
71994;DHT22;59861;50.268;8.648;2022-11-23T10:28:42;16.50;59.70
71994;DHT22;59861;50.268;8.648;2022-11-23T10:31:18;16.60;59.70
71994;DHT22;59861;50.268;8.648;2022-11-23T10:36:13;16.50;59.80
71994;DHT22;59861;50.268;8.648;2022-11-23T10:38:41;16.50;59.70
71994;DHT22;59861;50.268;8.648;2022-11-23T10:41:08;16.50;59.80
71994;DHT22;59861;50.268;8.648;2022-11-23T10:43:37;16.50;59.80
71994;DHT22;59861;50.268;8.648;2022-11-23T10:48:50;16.50;60.00
71994;DHT22;59861;50.268;8.648;2022-11-23T10:51:22;16.50;60.00
71994;DHT22;59861;50.268;8.648;2022-11-23T10:53:52;16.50;60.00
71994;DHT22;59861;50.268;8.648;2022-11-23T10:56:19;16.50;60.10
71994;DHT22;59861;50.268;8.648;2022-11-23T10:58:47;16.50;60.10
71994;DHT22;59861;50.268;8.648;2022-11-23T11:01:14;16.50;60.10
71994;DHT22;59861;50.268;8.648;2022-11-23T11:03:42;16.50;60.10
71994;DHT22;59861;50.268;8.648;2022-11-23T11:06:09;16.50;60.10
71994;DHT22;59861;50.268;8.648;2022-11-23T11:08:47;16.60;60.20
71994;DHT22;59861;50.268;8.648;2022-11-23T11:11:09;16.50;60.10
71994;DHT22;59861;50.268;8.648;2022-11-23T11:13:40;16.60;60.00
71994;DHT22;59861;50.268;8.648;2022-11-23T11:16:18;16.60;59.90
71994;DHT22;59861;50.268;8.648;2022-11-23T11:18:41;16.60;59.90
71994;DHT22;59861;50.268;8.648;2022-11-23T11:21:27;16.60;59.80
71994;DHT22;59861;50.268;8.648;2022-11-23T11:23:52;16.60;60.70
71994;DHT22;59861;50.268;8.648;2022-11-23T11:26:21;16.60;59.80
71994;DHT22;59861;50.268;8.648;2022-11-23T11:28:49;16.60;59.80
71994;DHT22;59861;50.268;8.648;2022-11-23T11:36:15;16.60;59.80
71994;DHT22;59861;50.268;8.648;2022-11-23T11:38:45;16.60;59.80
71994;DHT22;59861;50.268;8.648;2022-11-23T11:41:12;16.60;59.70
71994;DHT22;59861;50.268;8.648;2022-11-23T11:43:45;16.60;59.70
71994;DHT22;59861;50.268;8.648;2022-11-23T11:46:16;16.60;59.70
71994;DHT22;59861;50.268;8.648;2022-11-23T11:48:46;16.60;59.80
71994;DHT22;59861;50.268;8.648;2022-11-23T11:51:21;16.60;59.80
71994;DHT22;59861;50.268;8.648;2022-11-23T11:56:28;16.60;59.70
71994;DHT22;59861;50.268;8.648;2022-11-23T11:59:04;16.60;59.70
71994;DHT22;59861;50.268;8.648;2022-11-23T12:01:30;16.60;59.70
71994;DHT22;59861;50.268;8.648;2022-11-23T12:03:56;16.60;59.60
71994;DHT22;59861;50.268;8.648;2022-11-23T12:06:26;16.60;59.70
71994;DHT22;59861;50.268;8.648;2022-11-23T12:08:58;16.60;59.60
71994;DHT22;59861;50.268;8.648;2022-11-23T12:11:23;16.60;59.70
71994;DHT22;59861;50.268;8.648;2022-11-23T12:13:50;16.60;59.70
71994;DHT22;59861;50.268;8.648;2022-11-23T12:16:25;16.60;59.70
71994;DHT22;59861;50.268;8.648;2022-11-23T12:21:54;16.60;59.60
71994;DHT22;59861;50.268;8.648;2022-11-23T12:24:20;16.60;59.70
71994;DHT22;59861;50.268;8.648;2022-11-23T12:26:50;16.50;59.70
71994;DHT22;59861;50.268;8.648;2022-11-23T12:29:23;16.50;59.80
71994;DHT22;59861;50.268;8.648;2022-11-23T12:31:58;16.50;59.80
71994;DHT22;59861;50.268;8.648;2022-11-23T12:34:35;16.50;59.90
71994;DHT22;59861;50.268;8.648;2022-11-23T12:39:47;16.50;60.10
71994;DHT22;59861;50.268;8.648;2022-11-23T12:42:12;16.50;60.00
71994;DHT22;59861;50.268;8.648;2022-11-23T12:44:52;16.50;60.00
71994;DHT22;59861;50.268;8.648;2022-11-23T12:52:41;16.50;60.00
71994;DHT22;59861;50.268;8.648;2022-11-23T12:55:14;16.50;59.90
71994;DHT22;59861;50.268;8.648;2022-11-23T12:57:46;16.60;59.90
71994;DHT22;59861;50.268;8.648;2022-11-23T13:00:13;16.60;59.90
71994;DHT22;59861;50.268;8.648;2022-11-23T13:10:37;16.60;59.80
71994;DHT22;59861;50.268;8.648;2022-11-23T13:18:35;16.60;59.90
71994;DHT22;59861;50.268;8.648;2022-11-23T13:23:38;16.60;59.80
71994;DHT22;59861;50.268;8.648;2022-11-23T13:26:18;16.60;59.80
71994;DHT22;59861;50.268;8.648;2022-11-23T13:28:53;16.60;59.90
71994;DHT22;59861;50.268;8.648;2022-11-23T13:31:21;16.60;59.80
71994;DHT22;59861;50.268;8.648;2022-11-23T13:33:49;16.60;59.90
71994;DHT22;59861;50.268;8.648;2022-11-23T13:38:57;16.60;59.90
71994;DHT22;59861;50.268;8.648;2022-11-23T13:47:01;16.50;59.40
71994;DHT22;59861;50.268;8.648;2022-11-23T13:52:32;16.50;59.90
71994;DHT22;59861;50.268;8.648;2022-11-23T13:54:33;16.50;59.90
71994;DHT22;59861;50.268;8.648;2022-11-23T13:57:00;16.50;59.90
71994;DHT22;59861;50.268;8.648;2022-11-23T13:59:29;16.50;59.90
71994;DHT22;59861;50.268;8.648;2022-11-23T14:04:35;16.50;59.90
71994;DHT22;59861;50.268;8.648;2022-11-23T14:07:00;16.50;60.00
71994;DHT22;59861;50.268;8.648;2022-11-23T14:09:32;16.50;60.10
71994;DHT22;59861;50.268;8.648;2022-11-23T14:30:12;16.40;60.50
71994;DHT22;59861;50.268;8.648;2022-11-23T14:35:21;16.50;60.60
71994;DHT22;59861;50.268;8.648;2022-11-23T14:40:47;16.50;60.50
71994;DHT22;59861;50.268;8.648;2022-11-23T14:43:14;16.50;60.60
71994;DHT22;59861;50.268;8.648;2022-11-23T14:45:45;16.50;60.50
71994;DHT22;59861;50.268;8.648;2022-11-23T14:48:24;16.60;60.40
71994;DHT22;59861;50.268;8.648;2022-11-23T14:50:52;16.60;60.40
71994;DHT22;59861;50.268;8.648;2022-11-23T14:53:14;16.60;60.40
71994;DHT22;59861;50.268;8.648;2022-11-23T14:55:41;16.60;60.30
71994;DHT22;59861;50.268;8.648;2022-11-23T14:58:10;16.60;60.40
71994;DHT22;59861;50.268;8.648;2022-11-23T15:00:40;16.60;60.30
71994;DHT22;59861;50.268;8.648;2022-11-23T15:03:14;16.60;60.20
71994;DHT22;59861;50.268;8.648;2022-11-23T15:05:42;16.60;60.20
71994;DHT22;59861;50.268;8.648;2022-11-23T15:08:12;16.60;60.20
71994;DHT22;59861;50.268;8.648;2022-11-23T15:10:43;16.60;60.20
71994;DHT22;59861;50.268;8.648;2022-11-23T15:13:26;16.60;60.10
71994;DHT22;59861;50.268;8.648;2022-11-23T15:15:54;16.60;60.10
71994;DHT22;59861;50.268;8.648;2022-11-23T15:18:31;16.60;60.10
71994;DHT22;59861;50.268;8.648;2022-11-23T15:21:00;16.60;60.20
71994;DHT22;59861;50.268;8.648;2022-11-23T15:23:34;16.60;60.10
71994;DHT22;59861;50.268;8.648;2022-11-23T15:25:59;16.60;60.10
71994;DHT22;59861;50.268;8.648;2022-11-23T15:28:28;16.60;61.00
71994;DHT22;59861;50.268;8.648;2022-11-23T15:30:56;16.60;60.20
71994;DHT22;59861;50.268;8.648;2022-11-23T15:33:23;16.60;60.20
71994;DHT22;59861;50.268;8.648;2022-11-23T15:35:50;16.50;60.20
71994;DHT22;59861;50.268;8.648;2022-11-23T15:38:18;16.50;60.30
71994;DHT22;59861;50.268;8.648;2022-11-23T15:40:46;16.50;60.30
71994;DHT22;59861;50.268;8.648;2022-11-23T15:43:14;16.60;60.10
71994;DHT22;59861;50.268;8.648;2022-11-23T15:45:55;16.50;60.20
71994;DHT22;59861;50.268;8.648;2022-11-23T15:48:11;16.60;60.20
71994;DHT22;59861;50.268;8.648;2022-11-23T15:50:51;16.50;60.00
71994;DHT22;59861;50.268;8.648;2022-11-23T15:53:15;16.50;60.10
71994;DHT22;59861;50.268;8.648;2022-11-23T15:55:42;16.50;60.20
71994;DHT22;59861;50.268;8.648;2022-11-23T15:58:12;16.50;60.10
71994;DHT22;59861;50.268;8.648;2022-11-23T16:00:37;16.50;60.10
71994;DHT22;59861;50.268;8.648;2022-11-23T16:08:35;16.50;60.30
71994;DHT22;59861;50.268;8.648;2022-11-23T16:11:03;16.50;60.30
71994;DHT22;59861;50.268;8.648;2022-11-23T16:13:34;16.40;60.30
71994;DHT22;59861;50.268;8.648;2022-11-23T16:16:01;16.40;60.30
71994;DHT22;59861;50.268;8.648;2022-11-23T16:18:29;16.40;60.20
71994;DHT22;59861;50.268;8.648;2022-11-23T16:21:02;16.40;60.30
71994;DHT22;59861;50.268;8.648;2022-11-23T16:24:13;16.50;60.40
71994;DHT22;59861;50.268;8.648;2022-11-23T16:26:03;16.40;60.30
71994;DHT22;59861;50.268;8.648;2022-11-23T16:28:31;16.50;60.50
71994;DHT22;59861;50.268;8.648;2022-11-23T16:30:58;16.50;60.50
71994;DHT22;59861;50.268;8.648;2022-11-23T16:33:26;16.50;60.40
71994;DHT22;59861;50.268;8.648;2022-11-23T16:35:53;16.50;60.40
71994;DHT22;59861;50.268;8.648;2022-11-23T16:38:20;16.50;60.20
71994;DHT22;59861;50.268;8.648;2022-11-23T16:40:47;16.50;60.40
71994;DHT22;59861;50.268;8.648;2022-11-23T16:43:14;16.50;60.70
71994;DHT22;59861;50.268;8.648;2022-11-23T16:45:42;16.50;61.60
71994;DHT22;59861;50.268;8.648;2022-11-23T16:50:53;16.50;61.40
71994;DHT22;59861;50.268;8.648;2022-11-23T16:53:20;16.50;61.10
71994;DHT22;59861;50.268;8.648;2022-11-23T16:55:51;16.50;61.40
71994;DHT22;59861;50.268;8.648;2022-11-23T16:58:18;16.50;61.50
71994;DHT22;59861;50.268;8.648;2022-11-23T17:00:45;16.40;61.60
71994;DHT22;59861;50.268;8.648;2022-11-23T17:03:14;16.40;61.70
71994;DHT22;59861;50.268;8.648;2022-11-23T17:05:41;16.40;61.80
71994;DHT22;59861;50.268;8.648;2022-11-23T17:08:08;16.40;62.00
71994;DHT22;59861;50.268;8.648;2022-11-23T17:10:38;16.40;62.00
71994;DHT22;59861;50.268;8.648;2022-11-23T17:13:06;16.40;61.80
71994;DHT22;59861;50.268;8.648;2022-11-23T17:15:33;16.50;61.60
71994;DHT22;59861;50.268;8.648;2022-11-23T17:18:00;16.50;62.30
71994;DHT22;59861;50.268;8.648;2022-11-23T17:20:27;16.50;62.50
71994;DHT22;59861;50.268;8.648;2022-11-23T17:22:54;16.50;63.20
71994;DHT22;59861;50.268;8.648;2022-11-23T17:25:22;16.50;63.30
71994;DHT22;59861;50.268;8.648;2022-11-23T17:27:49;16.50;62.90